Aviation Digital Data Service (ADDS)

Output produced by METARs form (0650 UTC 17 January 2017)
found at http://aviationweather.gov/adds/metars/
 
METAR text: KBFM 170629Z AUTO 00000KT 1 3/4SM BR OVC022 18/18 A3016 RMK AO2 T01830183
Conditions at: KBFM (MOBILE/BROOKLEY , AL, US) observed 0629 UTC 17 January 2017
Temperature: 18.3°C (65°F)
Dewpoint: 18.3°C (65°F) [RH = 100%]
Pressure (altimeter): 30.16 inches Hg (1021.4 mb)
Winds: calm
Visibility: 1.75 miles (2.82 km)
Ceiling: 2200 feet AGL
Clouds: overcast cloud deck at 2200 feet AGL
Weather: BR  (mist)